| time (UTC) | temp C | wind direction | speed KPH | gust KPH | rain 1hr cm | rain 24hr cm | rain mn cm | humidity % | barometer mb |
| 20260510104557 | 10 | 180 | 1.6 | 3.2 | 0.00 | 0.76 | 0.00 | 99 | 1013.0 |
| 20260510104059 | 10 | 0 | 0.0 | 0.0 | 0.00 | 0.76 | 0.00 | 98 | 1012.9 |
| 20260510103559 | 10 | 0 | 0.0 | 1.6 | 0.00 | 0.76 | 0.00 | 98 | 1013.0 |
| 20260510103057 | 10 | 0 | 0.0 | 3.2 | 0.00 | 0.76 | 0.00 | 98 | 1012.9 |
| 20260510102559 | 10 | 179 | 0.0 | 3.2 | 0.00 | 0.76 | 0.00 | 99 | 1012.8 |
| 20260510102059 | 10 | 180 | 1.6 | 3.2 | 0.00 | 0.76 | 0.00 | 99 | 1012.7 |
| 20260510101605 | 10 | 179 | 1.6 | 3.2 | 0.00 | 0.76 | 0.00 | 99 | 1012.7 |
| 20260510101059 | 10 | 0 | 0.0 | 3.2 | 0.00 | 0.76 | 0.00 | 99 | 1012.7 |
| 20260510100602 | 10 | 0 | 0.0 | 4.8 | 0.00 | 0.76 | 0.00 | 99 | 1012.7 |
| 20260510100110 | 10 | 0 | 0.0 | 8.0 | 0.00 | 0.76 | 0.00 | 99 | 1012.6 |
| 20260510095559 | 10 | 180 | 3.2 | 8.0 | 0.00 | 0.76 | 0.00 | 98 | 1012.6 |
| 20260510095059 | 10 | 180 | 3.2 | 4.8 | 0.00 | 0.76 | 0.00 | 98 | 1012.4 |
| 20260510094559 | 11 | 179 | 1.6 | 3.2 | 0.00 | 0.76 | 0.00 | 98 | 1012.4 |
| 20260510094059 | 10 | 180 | 1.6 | 4.8 | 0.00 | 0.76 | 0.00 | 99 | 1012.3 |
| 20260510093559 | 11 | 0 | 0.0 | 4.8 | 0.00 | 0.76 | 0.00 | 99 | 1012.5 |
| 20260510093057 | 11 | 180 | 3.2 | 4.8 | 0.00 | 0.76 | 0.00 | 99 | 1012.4 |
| 20260510092559 | 11 | 179 | 1.6 | 3.2 | 0.00 | 0.76 | 0.00 | 99 | 1012.4 |
| 20260510092058 | 11 | 179 | 1.6 | 3.2 | 0.00 | 0.76 | 0.00 | 99 | 1012.4 |
| 20260510091558 | 11 | 179 | 0.0 | 1.6 | 0.00 | 0.76 | 0.00 | 99 | 1012.5 |
| 20260510091100 | 11 | 0 | 0.0 | 3.2 | 0.00 | 0.76 | 0.00 | 99 | 1012.5 |
| 20260510090602 | 11 | 0 | 0.0 | 4.8 | 0.00 | 0.76 | 0.00 | 99 | 1012.5 |
| 20260510090059 | 11 | 179 | 1.6 | 4.8 | 0.00 | 0.76 | 0.00 | 99 | 1012.6 |
| 20260510085557 | 11 | 179 | 3.2 | 4.8 | 0.00 | 0.76 | 0.00 | 99 | 1012.6 |
| 20260510085059 | 11 | 179 | 3.2 | 4.8 | 0.00 | 0.76 | 0.00 | 99 | 1012.6 |
| 20260510084613 | 11 | 180 | 0.0 | 0.0 | 0.00 | 0.76 | 0.00 | 99 | 1012.7 |
| 20260510084058 | 11 | 0 | 0.0 | 0.0 | 0.00 | 0.76 | 0.00 | 99 | 1012.5 |
| 20260510083601 | 11 | 0 | 0.0 | 3.2 | 0.00 | 0.76 | 0.00 | 99 | 1012.7 |
| 20260510083059 | 11 | 0 | 0.0 | 3.2 | 0.00 | 0.76 | 0.00 | 99 | 1012.7 |
| 20260510082558 | 11 | 0 | 0.0 | 3.2 | 0.00 | 0.76 | 0.00 | 99 | 1012.7 |
| 20260510082058 | 11 | 0 | 1.6 | 3.2 | 0.00 | 0.76 | 0.00 | 99 | 1012.8 |
| 20260510081604 | 11 | 180 | 0.0 | 3.2 | 0.00 | 0.76 | 0.00 | 99 | 1012.8 |
| 20260510081058 | 10 | 0 | 0.0 | 3.2 | 0.00 | 0.76 | 0.00 | 99 | 1012.8 |
| 20260510080557 | 10 | 308 | 1.6 | 3.2 | 0.00 | 0.76 | 0.00 | 99 | 1012.7 |
| 20260510080105 | 10 | 308 | 1.6 | 3.2 | 0.00 | 0.76 | 0.00 | 99 | 1012.7 |
| 20260510075558 | 10 | 308 | 1.6 | 9.7 | 0.00 | 0.76 | 0.00 | 99 | 1012.9 |
| 20260510075058 | 10 | 306 | 1.6 | 9.7 | 0.00 | 0.76 | 0.00 | 98 | 1012.8 |
| 20260510074604 | 10 | 300 | 0.0 | 9.7 | 0.00 | 0.76 | 0.00 | 98 | 1012.7 |
| 20260510074058 | 10 | 304 | 3.2 | 14.5 | 0.00 | 0.76 | 0.00 | 98 | 1012.8 |
| 20260510073557 | 10 | 42 | 6.4 | 14.5 | 0.00 | 0.76 | 0.00 | 98 | 1012.5 |
| 20260510073100 | 10 | 323 | 0.0 | 4.8 | 0.00 | 0.76 | 0.00 | 98 | 1012.6 |
| 20260510072558 | 10 | 0 | 0.0 | 3.2 | 0.00 | 0.76 | 0.00 | 98 | 1012.1 |
| 20260510072058 | 10 | 0 | 0.0 | 3.2 | 0.00 | 0.76 | 0.00 | 98 | 1012.0 |
| 20260510071559 | 10 | 323 | 1.6 | 3.2 | 0.00 | 0.76 | 0.00 | 98 | 1012.0 |
| 20260510071059 | 10 | 323 | 0.0 | 3.2 | 0.00 | 0.76 | 0.00 | 98 | 1011.9 |
| 20260510070557 | 10 | 0 | 0.0 | 3.2 | 0.00 | 0.76 | 0.00 | 99 | 1012.1 |
| 20260510070113 | 10 | 0 | 0.0 | 3.2 | 0.00 | 0.76 | 0.00 | 99 | 1012.0 |
| 20260510065602 | 10 | 0 | 0.0 | 0.0 | 0.00 | 0.76 | 0.00 | 98 | 1012.0 |
| 20260510065057 | 10 | 0 | 0.0 | 3.2 | 0.00 | 0.76 | 0.00 | 98 | 1012.1 |
| 20260510064558 | 10 | 0 | 0.0 | 3.2 | 0.00 | 0.76 | 0.00 | 98 | 1012.1 |
| 20260510064058 | 10 | 0 | 0.0 | 3.2 | 0.00 | 0.76 | 0.00 | 98 | 1012.1 |
| 20260510063558 | 10 | 0 | 0.0 | 3.2 | 0.00 | 0.76 | 0.00 | 98 | 1012.2 |
| 20260510063101 | 10 | 0 | 0.0 | 3.2 | 0.00 | 0.76 | 0.00 | 98 | 1012.3 |
| 20260510062557 | 10 | 323 | 1.6 | 4.8 | 0.00 | 0.76 | 0.00 | 98 | 1012.4 |
| 20260510062057 | 10 | 323 | 1.6 | 6.4 | 0.00 | 0.76 | 0.00 | 98 | 1012.4 |
| 20260510061559 | 10 | 302 | 3.2 | 6.4 | 0.00 | 0.76 | 0.00 | 98 | 1012.4 |
| 20260510061058 | 10 | 303 | 1.6 | 4.8 | 0.00 | 0.76 | 0.00 | 98 | 1012.5 |
| 20260510060558 | 10 | 165 | 0.0 | 3.2 | 0.00 | 0.76 | 0.00 | 98 | 1012.4 |
| 20260510060059 | 10 | 165 | 0.0 | 3.2 | 0.00 | 0.76 | 0.00 | 98 | 1012.3 |
| 20260510055557 | 10 | 0 | 0.0 | 3.2 | 0.00 | 0.76 | 0.00 | 98 | 1012.2 |
| 20260510055101 | 10 | 165 | 0.0 | 3.2 | 0.00 | 0.76 | 0.00 | 98 | 1012.1 |
| 20260510054601 | 10 | 165 | 0.0 | 3.2 | 0.00 | 0.76 | 0.00 | 98 | 1012.1 |
| 20260510054058 | 10 | 165 | 1.6 | 3.2 | 0.00 | 0.76 | 0.00 | 98 | 1012.0 |
| 20260510053558 | 10 | 165 | 0.0 | 3.2 | 0.00 | 0.76 | 0.00 | 98 | 1012.0 |
| 20260510053100 | 10 | 165 | 1.6 | 3.2 | 0.00 | 0.76 | 0.00 | 98 | 1012.0 |
| 20260510052559 | 10 | 165 | 1.6 | 3.2 | 0.00 | 0.76 | 0.00 | 98 | 1012.1 |
| 20260510052059 | 10 | 165 | 0.0 | 4.8 | 0.00 | 0.76 | 0.00 | 98 | 1012.2 |
| 20260510051608 | 10 | 165 | 1.6 | 6.4 | 0.00 | 0.76 | 0.00 | 98 | 1012.1 |
| 20260510051058 | 10 | 165 | 3.2 | 6.4 | 0.00 | 0.76 | 0.00 | 98 | 1012.1 |
| 20260510050600 | 10 | 0 | 0.0 | 0.0 | 0.00 | 0.76 | 0.00 | 98 | 1012.2 |
| 20260510050111 | 10 | 0 | 0.0 | 0.0 | 0.00 | 0.76 | 0.00 | 98 | 1012.1 |
| 20260510045559 | 10 | 0 | 0.0 | 0.0 | 0.00 | 0.76 | 0.00 | 98 | 1012.2 |
| 20260510045059 | 10 | 0 | 0.0 | 0.0 | 0.00 | 0.76 | 0.00 | 98 | 1012.3 |
| 20260510044558 | 10 | 0 | 0.0 | 0.0 | 0.00 | 0.76 | 0.00 | 98 | 1012.3 |
| 20260510044100 | 10 | 0 | 0.0 | 0.0 | 0.00 | 0.76 | 0.00 | 98 | 1012.3 |
| 20260510043558 | 10 | 0 | 0.0 | 0.0 | 0.00 | 0.76 | 0.00 | 98 | 1012.3 |
| 20260510043059 | 10 | 0 | 0.0 | 0.0 | 0.00 | 0.76 | 0.00 | 98 | 1012.3 |
| 20260510042559 | 10 | 0 | 0.0 | 0.0 | 0.00 | 0.76 | 0.00 | 98 | 1012.3 |
| 20260510042058 | 10 | 0 | 0.0 | 0.0 | 0.00 | 0.76 | 0.00 | 98 | 1012.3 |
| 20260510041609 | 10 | 0 | 0.0 | 0.0 | 0.00 | 0.76 | 0.00 | 98 | 1012.3 |
| 20260510041058 | 10 | 0 | 0.0 | 0.0 | 0.00 | 0.76 | 0.00 | 97 | 1012.2 |
| 20260510040558 | 10 | 0 | 0.0 | 0.0 | 0.00 | 0.76 | 0.00 | 98 | 1012.2 |
| 20260510040107 | 10 | 0 | 0.0 | 0.0 | 0.00 | 0.76 | 0.00 | 98 | 1012.3 |
| 20260510035557 | 10 | 0 | 0.0 | 0.0 | 0.00 | 0.76 | 0.76 | 98 | 1012.2 |
| 20260510035100 | 10 | 0 | 0.0 | 0.0 | 0.00 | 0.76 | 0.76 | 98 | 1012.2 |
| 20260510034600 | 10 | 0 | 0.0 | 0.0 | 0.00 | 0.76 | 0.76 | 98 | 1012.2 |
| 20260510034058 | 10 | 0 | 0.0 | 0.0 | 0.00 | 0.76 | 0.76 | 98 | 1012.2 |
| 20260510033558 | 10 | 0 | 0.0 | 0.0 | 0.00 | 0.76 | 0.76 | 97 | 1012.2 |
| 20260510033104 | 10 | 0 | 0.0 | 0.0 | 0.00 | 0.76 | 0.76 | 97 | 1012.2 |
| 20260510032600 | 10 | 0 | 0.0 | 0.0 | 0.00 | 0.76 | 0.76 | 97 | 1012.1 |
| 20260510032058 | 10 | 0 | 0.0 | 0.0 | 0.00 | 0.76 | 0.76 | 97 | 1012.1 |
| 20260510031604 | 10 | 0 | 0.0 | 0.0 | 0.00 | 0.76 | 0.76 | 97 | 1012.1 |
| 20260510031058 | 9 | 0 | 0.0 | 0.0 | 0.00 | 0.76 | 0.76 | 97 | 1012.2 |
| 20260510030600 | 9 | 0 | 0.0 | 0.0 | 0.00 | 0.76 | 0.76 | 97 | 1012.0 |
| 20260510025558 | 9 | 0 | 0.0 | 0.0 | 0.00 | 0.76 | 0.76 | 97 | 1012.0 |
| 20260510025102 | 9 | 0 | 0.0 | 0.0 | 0.00 | 0.76 | 0.76 | 97 | 1012.0 |
| 20260510024558 | 9 | 0 | 0.0 | 0.0 | 0.00 | 0.76 | 0.76 | 97 | 1012.0 |
| 20260510024100 | 9 | 0 | 0.0 | 0.0 | 0.00 | 0.76 | 0.76 | 97 | 1012.0 |
| 20260510023558 | 9 | 0 | 0.0 | 0.0 | 0.00 | 0.76 | 0.76 | 97 | 1012.0 |
| 20260510023100 | 9 | 0 | 0.0 | 0.0 | 0.00 | 0.76 | 0.76 | 97 | 1011.9 |
| 20260510022559 | 9 | 0 | 0.0 | 0.0 | 0.00 | 0.76 | 0.76 | 97 | 1011.9 |
| 20260510022100 | 9 | 0 | 0.0 | 0.0 | 0.00 | 0.76 | 0.76 | 96 | 1011.8 |
| 20260510021646 | 9 | 0 | 0.0 | 0.0 | 0.00 | 0.76 | 0.76 | 96 | 1011.8 |
| 20260510021058 | 9 | 0 | 0.0 | 0.0 | 0.00 | 0.76 | 0.76 | 96 | 1011.8 |
| 20260510020558 | 9 | 0 | 0.0 | 0.0 | 0.00 | 0.76 | 0.76 | 96 | 1011.8 |
| 20260510015558 | 9 | 0 | 0.0 | 0.0 | 0.00 | 0.76 | 0.76 | 96 | 1011.8 |
| 20260510015058 | 10 | 0 | 0.0 | 0.0 | 0.00 | 0.76 | 0.76 | 95 | 1011.9 |
| 20260510014601 | 10 | 0 | 0.0 | 0.0 | 0.00 | 0.76 | 0.76 | 95 | 1011.8 |
| 20260510014058 | 10 | 0 | 0.0 | 0.0 | 0.00 | 0.76 | 0.76 | 96 | 1011.8 |
| 20260510013558 | 10 | 0 | 0.0 | 0.0 | 0.00 | 0.76 | 0.76 | 96 | 1011.9 |
| 20260510013114 | 10 | 0 | 0.0 | 0.0 | 0.00 | 0.76 | 0.76 | 96 | 1011.9 |
| 20260510012559 | 10 | 0 | 0.0 | 0.0 | 0.00 | 0.76 | 0.76 | 96 | 1011.8 |
| 20260510012059 | 10 | 0 | 0.0 | 0.0 | 0.00 | 0.76 | 0.76 | 96 | 1011.8 |
| 20260510011600 | 11 | 0 | 0.0 | 0.0 | 0.00 | 0.76 | 0.76 | 96 | 1011.8 |
| 20260510011100 | 11 | 0 | 0.0 | 0.0 | 0.00 | 0.76 | 0.76 | 95 | 1011.7 |
| 20260510010600 | 11 | 0 | 0.0 | 0.0 | 0.00 | 0.76 | 0.76 | 95 | 1011.7 |
| 20260510005559 | 11 | 0 | 0.0 | 0.0 | 0.00 | 0.76 | 0.76 | 95 | 1011.6 |
| 20260510005058 | 11 | 0 | 0.0 | 0.0 | 0.00 | 0.76 | 0.76 | 94 | 1011.6 |
| 20260510004601 | 11 | 0 | 0.0 | 0.0 | 0.00 | 0.76 | 0.76 | 94 | 1011.5 |
| 20260510004058 | 11 | 0 | 0.0 | 0.0 | 0.00 | 0.76 | 0.76 | 94 | 1011.4 |
| 20260510003556 | 12 | 0 | 0.0 | 0.0 | 0.00 | 0.76 | 0.76 | 94 | 1011.3 |
| 20260510003100 | 12 | 0 | 0.0 | 1.6 | 0.00 | 0.76 | 0.76 | 94 | 1011.3 |
| 20260510002559 | 12 | 0 | 0.0 | 1.6 | 0.00 | 0.76 | 0.76 | 94 | 1011.1 |
| 20260510002057 | 12 | 165 | 0.0 | 4.8 | 0.00 | 0.76 | 0.76 | 94 | 1011.1 |
| 20260510001609 | 12 | 0 | 0.0 | 8.0 | 0.00 | 0.76 | 0.76 | 94 | 1011.0 |
| 20260510001058 | 12 | 165 | 1.6 | 8.0 | 0.00 | 0.76 | 0.76 | 94 | 1011.0 |
| 20260510000559 | 12 | 165 | 3.2 | 8.0 | 0.00 | 0.76 | 0.76 | 94 | 1010.9 |
| 20260510000100 | 12 | 0 | 0.0 | 0.0 | 0.00 | 0.76 | 0.76 | 93 | 1010.8 |
| 20260509235557 | 12 | 0 | 0.0 | 0.0 | 0.00 | 0.76 | 0.76 | 93 | 1010.9 |
| 20260509235057 | 13 | 0 | 0.0 | 0.0 | 0.00 | 0.76 | 0.76 | 92 | 1011.0 |
| 20260509234559 | 13 | 0 | 0.0 | 8.0 | 0.00 | 0.76 | 0.76 | 92 | 1011.0 |
| 20260509234057 | 13 | 0 | 0.0 | 8.0 | 0.00 | 0.76 | 0.76 | 91 | 1011.0 |
| 20260509233557 | 13 | 146 | 6.4 | 12.9 | 0.00 | 0.76 | 0.76 | 91 | 1010.9 |
| 20260509233102 | 13 | 156 | 6.4 | 16.1 | 0.00 | 0.76 | 0.76 | 91 | 1010.9 |
| 20260509232559 | 13 | 150 | 11.3 | 16.1 | 0.00 | 0.76 | 0.76 | 91 | 1011.0 |
| 20260509232059 | 13 | 165 | 4.8 | 8.0 | 0.00 | 0.76 | 0.76 | 92 | 1010.8 |
| 20260509231604 | 13 | 127 | 0.0 | 3.2 | 0.00 | 0.76 | 0.76 | 92 | 1010.8 |
| 20260509231100 | 14 | 0 | 1.6 | 3.2 | 0.00 | 0.76 | 0.76 | 91 | 1010.8 |
| 20260509230600 | 14 | 127 | 1.6 | 3.2 | 0.00 | 0.76 | 0.76 | 91 | 1010.8 |
| 20260509230100 | 14 | 127 | 0.0 | 4.8 | 0.00 | 0.76 | 0.76 | 91 | 1010.7 |
| 20260509225600 | 14 | 127 | 1.6 | 4.8 | 0.00 | 0.76 | 0.76 | 91 | 1010.7 |
| 20260509225059 | 14 | 129 | 3.2 | 4.8 | 0.00 | 0.76 | 0.76 | 90 | 1010.7 |
| 20260509224559 | 14 | 129 | 1.6 | 3.2 | 0.00 | 0.76 | 0.76 | 90 | 1010.8 |
| 20260509224059 | 14 | 129 | 1.6 | 3.2 | 0.00 | 0.76 | 0.76 | 90 | 1010.8 |
| 20260509223600 | 14 | 129 | 0.0 | 3.2 | 0.00 | 0.76 | 0.76 | 90 | 1010.9 |
| 20260509223102 | 14 | 129 | 0.0 | 3.2 | 0.00 | 0.76 | 0.76 | 90 | 1010.9 |
| 20260509222559 | 14 | 129 | 0.0 | 3.2 | 0.00 | 0.76 | 0.76 | 89 | 1010.8 |
| 20260509222059 | 14 | 129 | 0.0 | 3.2 | 0.00 | 0.76 | 0.76 | 89 | 1010.9 |
| 20260509221559 | 14 | 0 | 0.0 | 3.2 | 0.00 | 0.76 | 0.76 | 89 | 1010.9 |
| 20260509221059 | 14 | 129 | 0.0 | 3.2 | 0.00 | 0.76 | 0.76 | 90 | 1010.9 |
| 20260509220600 | 13 | 0 | 1.6 | 3.2 | 0.00 | 0.76 | 0.76 | 90 | 1010.9 |
| 20260509220100 | 13 | 128 | 1.6 | 3.2 | 0.00 | 0.76 | 0.76 | 90 | 1010.8 |
| 20260509215559 | 13 | 128 | 1.6 | 3.2 | 0.00 | 0.76 | 0.76 | 91 | 1010.8 |
| 20260509215100 | 13 | 129 | 0.0 | 4.8 | 0.00 | 0.76 | 0.76 | 91 | 1010.7 |
| 20260509214558 | 13 | 128 | 1.6 | 6.4 | 0.00 | 0.76 | 0.76 | 91 | 1010.7 |
| 20260509214059 | 13 | 128 | 3.2 | 8.0 | 0.00 | 0.76 | 0.76 | 91 | 1010.8 |
| 20260509213559 | 13 | 113 | 4.8 | 8.0 | 0.00 | 0.76 | 0.76 | 92 | 1010.8 |
| 20260509213115 | 13 | 150 | 4.8 | 6.4 | 0.00 | 0.76 | 0.76 | 92 | 1010.9 |
| 20260509212559 | 13 | 0 | 0.0 | 0.0 | 0.00 | 0.76 | 0.76 | 92 | 1011.0 |
| 20260509212100 | 13 | 0 | 0.0 | 0.0 | 0.00 | 0.76 | 0.76 | 93 | 1011.0 |
| 20260509211603 | 13 | 0 | 0.0 | 3.2 | 0.00 | 0.76 | 0.76 | 93 | 1011.1 |
| 20260509211059 | 13 | 0 | 0.0 | 3.2 | 0.03 | 0.76 | 0.76 | 92 | 1011.1 |
| 20260509210600 | 13 | 0 | 1.6 | 3.2 | 0.05 | 0.76 | 0.76 | 93 | 1011.2 |
| 20260509210059 | 13 | 22 | 0.0 | 3.2 | 0.08 | 0.76 | 0.76 | 93 | 1011.4 |
| 20260509205559 | 12 | 0 | 0.0 | 3.2 | 0.10 | 0.76 | 0.76 | 93 | 1011.3 |
| 20260509205059 | 12 | 17 | 0.0 | 3.2 | 0.10 | 0.76 | 0.76 | 94 | 1011.2 |
| 20260509204600 | 12 | 17 | 0.0 | 3.2 | 0.10 | 0.76 | 0.76 | 94 | 1011.1 |
| 20260509204100 | 12 | 134 | 1.6 | 3.2 | 0.10 | 0.76 | 0.76 | 94 | 1011.1 |
| 20260509203559 | 12 | 0 | 0.0 | 3.2 | 0.10 | 0.76 | 0.76 | 94 | 1011.2 |
| 20260509203101 | 12 | 134 | 1.6 | 3.2 | 0.10 | 0.76 | 0.76 | 94 | 1011.2 |
| 20260509202601 | 12 | 0 | 0.0 | 3.2 | 0.10 | 0.76 | 0.76 | 94 | 1011.2 |
| 20260509202059 | 12 | 134 | 0.0 | 3.2 | 0.13 | 0.76 | 0.76 | 94 | 1011.1 |
| 20260509201605 | 12 | 134 | 1.6 | 3.2 | 0.15 | 0.76 | 0.76 | 94 | 1011.3 |
| 20260509201059 | 12 | 134 | 1.6 | 3.2 | 0.13 | 0.74 | 0.74 | 94 | 1011.4 |
| 20260509200559 | 12 | 134 | 0.0 | 3.2 | 0.15 | 0.71 | 0.71 | 94 | 1011.5 |
| 20260509200104 | 12 | 0 | 0.0 | 6.4 | 0.13 | 0.66 | 0.66 | 94 | 1011.5 |
| 20260509195600 | 12 | 134 | 1.6 | 8.0 | 0.18 | 0.66 | 0.66 | 94 | 1011.4 |
| 20260509195058 | 12 | 134 | 4.8 | 8.0 | 0.20 | 0.66 | 0.66 | 94 | 1011.4 |
| 20260509194602 | 12 | 129 | 3.2 | 4.8 | 0.23 | 0.66 | 0.66 | 94 | 1011.5 |
| 20260509194100 | 12 | 205 | 1.6 | 4.8 | 0.23 | 0.66 | 0.66 | 94 | 1011.7 |
| 20260509193600 | 12 | 205 | 3.2 | 4.8 | 0.25 | 0.66 | 0.66 | 93 | 1011.9 |
| 20260509193059 | 12 | 315 | 1.6 | 3.2 | 0.28 | 0.66 | 0.66 | 93 | 1012.0 |
| 20260509192603 | 12 | 0 | 0.0 | 3.2 | 0.30 | 0.66 | 0.66 | 94 | 1012.0 |
| 20260509192059 | 12 | 0 | 0.0 | 6.4 | 0.30 | 0.64 | 0.64 | 93 | 1012.0 |
| 20260509191608 | 12 | 317 | 3.2 | 6.4 | 0.30 | 0.61 | 0.61 | 92 | 1012.3 |
| 20260509191059 | 12 | 0 | 0.0 | 3.2 | 0.33 | 0.61 | 0.61 | 92 | 1012.4 |
| 20260509190602 | 12 | 326 | 0.0 | 4.8 | 0.30 | 0.56 | 0.56 | 92 | 1012.5 |
| 20260509190057 | 12 | 326 | 1.6 | 6.4 | 0.30 | 0.53 | 0.53 | 92 | 1012.5 |
| 20260509185559 | 12 | 352 | 0.0 | 8.0 | 0.28 | 0.48 | 0.48 | 92 | 1012.4 |
| 20260509185100 | 12 | 230 | 1.6 | 8.0 | 0.28 | 0.46 | 0.46 | 92 | 1012.4 |
| 20260509184610 | 13 | 27 | 1.6 | 4.8 | 0.28 | 0.43 | 0.43 | 92 | 1012.6 |
| 20260509184100 | 13 | 319 | 0.0 | 3.2 | 0.28 | 0.43 | 0.43 | 93 | 1012.6 |
| 20260509183600 | 13 | 0 | 0.0 | 0.0 | 0.28 | 0.41 | 0.41 | 93 | 1012.7 |
| 20260509183101 | 13 | 0 | 0.0 | 0.0 | 0.25 | 0.38 | 0.38 | 92 | 1012.6 |
| 20260509182600 | 13 | 0 | 0.0 | 0.0 | 0.25 | 0.36 | 0.36 | 92 | 1012.7 |
| 20260509182100 | 13 | 0 | 0.0 | 0.0 | 0.23 | 0.33 | 0.33 | 92 | 1012.8 |
| 20260509181606 | 13 | 0 | 0.0 | 0.0 | 0.23 | 0.30 | 0.30 | 92 | 1012.7 |
| 20260509181058 | 13 | 0 | 0.0 | 3.2 | 0.23 | 0.28 | 0.28 | 92 | 1012.7 |
| 20260509180600 | 13 | 0 | 0.0 | 3.2 | 0.23 | 0.25 | 0.25 | 91 | 1012.6 |
| 20260509180115 | 13 | 319 | 0.0 | 3.2 | 0.23 | 0.23 | 0.23 | 91 | 1012.5 |
| 20260509175559 | 13 | 319 | 1.6 | 4.8 | 0.20 | 0.20 | 0.20 | 91 | 1012.6 |
| 20260509175059 | 13 | 320 | 1.6 | 4.8 | 0.18 | 0.18 | 0.18 | 91 | 1012.5 |
| 20260509174557 | 13 | 179 | 0.0 | 4.8 | 0.15 | 0.15 | 0.15 | 90 | 1012.5 |
| 20260509174100 | 13 | 0 | 0.0 | 0.0 | 0.15 | 0.15 | 0.15 | 91 | 1012.5 |
| 20260509173600 | 13 | 0 | 0.0 | 0.0 | 0.13 | 0.13 | 0.13 | 90 | 1012.4 |
| 20260509173107 | 13 | 0 | 0.0 | 0.0 | 0.13 | 0.13 | 0.13 | 89 | 1012.3 |
| 20260509172600 | 13 | 0 | 0.0 | 3.2 | 0.10 | 0.10 | 0.10 | 89 | 1012.3 |
| 20260509172100 | 13 | 0 | 0.0 | 3.2 | 0.10 | 0.10 | 0.10 | 88 | 1012.4 |
| 20260509171558 | 14 | 179 | 0.0 | 4.8 | 0.08 | 0.08 | 0.08 | 87 | 1012.6 |
| 20260509171100 | 14 | 179 | 0.0 | 8.0 | 0.05 | 0.05 | 0.05 | 86 | 1012.6 |
| 20260509170600 | 14 | 179 | 3.2 | 8.0 | 0.03 | 0.03 | 0.03 | 85 | 1012.6 |
| 20260509170105 | 14 | 186 | 3.2 | 8.0 | 0.00 | 0.00 | 0.00 | 85 | 1012.7 |
| 20260509165559 | 14 | 202 | 1.6 | 12.9 | 0.00 | 0.00 | 0.00 | 84 | 1012.7 |
| 20260509165059 | 15 | 202 | 1.6 | 12.9 | 0.00 | 0.00 | 0.00 | 83 | 1012.6 |
| 20260509164557 | 15 | 220 | 4.8 | 12.9 | 0.00 | 0.00 | 0.00 | 82 | 1012.6 |
| 20260509164103 | 15 | 244 | 3.2 | 6.4 | 0.00 | 0.00 | 0.00 | 81 | 1012.5 |
| 20260509163559 | 15 | 0 | 0.0 | 9.7 | 0.00 | 0.00 | 0.00 | 81 | 1012.5 |
| 20260509163104 | 15 | 0 | 0.0 | 12.9 | 0.00 | 0.00 | 0.00 | 81 | 1012.5 |
| 20260509162601 | 15 | 284 | 1.6 | 12.9 | 0.00 | 0.00 | 0.00 | 80 | 1012.7 |
| 20260509162059 | 15 | 294 | 4.8 | 12.9 | 0.00 | 0.00 | 0.00 | 80 | 1012.7 |
| 20260509161605 | 15 | 258 | 1.6 | 9.7 | 0.00 | 0.00 | 0.00 | 80 | 1012.7 |
| 20260509161100 | 15 | 230 | 1.6 | 9.7 | 0.00 | 0.00 | 0.00 | 80 | 1012.6 |
| 20260509160600 | 15 | 257 | 3.2 | 9.7 | 0.00 | 0.00 | 0.00 | 80 | 1012.6 |
| 20260509155601 | 15 | 288 | 0.0 | 11.3 | 0.00 | 0.00 | 0.00 | 81 | 1012.8 |
| 20260509155059 | 15 | 291 | 3.2 | 11.3 | 0.00 | 0.00 | 0.00 | 81 | 1012.9 |
| 20260509154559 | 15 | 0 | 3.2 | 8.0 | 0.00 | 0.00 | 0.00 | 81 | 1012.8 |
| 20260509154100 | 15 | 248 | 1.6 | 8.0 | 0.00 | 0.00 | 0.00 | 82 | 1012.7 |
| 20260509153623 | 15 | 281 | 1.6 | 8.0 | 0.00 | 0.00 | 0.00 | 82 | 1012.8 |
| 20260509153103 | 14 | 261 | 1.6 | 8.0 | 0.00 | 0.00 | 0.00 | 83 | 1012.9 |
| 20260509152559 | 14 | 256 | 0.0 | 4.8 | 0.00 | 0.00 | 0.00 | 84 | 1012.9 |
| 20260509152100 | 14 | 0 | 0.0 | 0.0 | 0.00 | 0.00 | 0.00 | 85 | 1012.9 |
| 20260509151601 | 14 | 0 | 0.0 | 3.2 | 0.00 | 0.00 | 0.00 | 86 | 1012.7 |
| 20260509151100 | 14 | 0 | 0.0 | 4.8 | 0.00 | 0.00 | 0.00 | 87 | 1012.8 |
| 20260509150559 | 13 | 189 | 1.6 | 4.8 | 0.00 | 0.00 | 0.00 | 85 | 1012.8 |
| 20260509150058 | 14 | 192 | 1.6 | 4.8 | 0.00 | 0.00 | 0.00 | 86 | 1012.9 |
| 20260509145600 | 14 | 202 | 1.6 | 4.8 | 0.00 | 0.00 | 0.00 | 85 | 1012.8 |
| 20260509145100 | 14 | 202 | 1.6 | 3.2 | 0.00 | 0.00 | 0.00 | 85 | 1012.8 |
| 20260509144600 | 13 | 202 | 0.0 | 3.2 | 0.00 | 0.00 | 0.00 | 85 | 1012.8 |
| 20260509144101 | 13 | 0 | 0.0 | 3.2 | 0.00 | 0.00 | 0.00 | 85 | 1012.7 |
| 20260509143600 | 13 | 0 | 0.0 | 3.2 | 0.00 | 0.00 | 0.00 | 84 | 1012.8 |
| 20260509143059 | 13 | 0 | 0.0 | 3.2 | 0.00 | 0.00 | 0.00 | 84 | 1012.8 |
| 20260509142559 | 13 | 202 | 0.0 | 3.2 | 0.00 | 0.00 | 0.00 | 84 | 1012.8 |
| 20260509142059 | 13 | 202 | 0.0 | 3.2 | 0.00 | 0.00 | 0.00 | 84 | 1012.7 |
| 20260509141557 | 13 | 0 | 0.0 | 3.2 | 0.00 | 0.00 | 0.00 | 83 | 1012.7 |
| 20260509141101 | 13 | 0 | 1.6 | 3.2 | 0.00 | 0.00 | 0.00 | 83 | 1012.8 |
| 20260509140559 | 13 | 202 | 1.6 | 3.2 | 0.00 | 0.00 | 0.00 | 83 | 1012.7 |
| 20260509140108 | 13 | 202 | 1.6 | 3.2 | 0.00 | 0.00 | 0.00 | 83 | 1012.7 |
| 20260509135600 | 12 | 202 | 1.6 | 3.2 | 0.00 | 0.00 | 0.00 | 83 | 1012.7 |
| 20260509135100 | 12 | 202 | 0.0 | 3.2 | 0.00 | 0.00 | 0.00 | 84 | 1012.5 |
| 20260509134600 | 12 | 202 | 1.6 | 3.2 | 0.00 | 0.00 | 0.00 | 83 | 1012.4 |
| 20260509134059 | 12 | 202 | 1.6 | 3.2 | 0.00 | 0.00 | 0.00 | 83 | 1012.5 |
| 20260509133600 | 12 | 202 | 1.6 | 3.2 | 0.00 | 0.00 | 0.00 | 84 | 1012.5 |
| 20260509133058 | 12 | 202 | 1.6 | 3.2 | 0.00 | 0.00 | 0.00 | 83 | 1012.5 |
| 20260509132600 | 12 | 202 | 1.6 | 3.2 | 0.00 | 0.00 | 0.00 | 84 | 1012.5 |
| 20260509132100 | 12 | 202 | 0.0 | 0.0 | 0.00 | 0.00 | 0.00 | 85 | 1012.6 |
| 20260509131559 | 12 | 0 | 0.0 | 0.0 | 0.00 | 0.00 | 0.00 | 85 | 1012.7 |
| 20260509131059 | 12 | 0 | 0.0 | 0.0 | 0.00 | 0.00 | 0.00 | 85 | 1012.7 |
| 20260509130603 | 12 | 0 | 0.0 | 1.6 | 0.00 | 0.00 | 0.00 | 85 | 1012.7 |
| 20260509130059 | 12 | 0 | 0.0 | 3.2 | 0.00 | 0.00 | 0.00 | 85 | 1012.8 |
| 20260509125559 | 11 | 202 | 1.6 | 3.2 | 0.00 | 0.00 | 0.00 | 85 | 1012.8 |
| 20260509125059 | 11 | 202 | 0.0 | 4.8 | 0.00 | 0.00 | 0.00 | 86 | 1012.8 |
| 20260509124559 | 11 | 281 | 1.6 | 4.8 | 0.00 | 0.00 | 0.00 | 86 | 1012.8 |
| 20260509124059 | 11 | 281 | 1.6 | 4.8 | 0.00 | 0.00 | 0.00 | 87 | 1012.8 |
| 20260509123559 | 11 | 281 | 1.6 | 4.8 | 0.00 | 0.00 | 0.00 | 87 | 1012.8 |
| 20260509123100 | 11 | 281 | 1.6 | 4.8 | 0.00 | 0.00 | 0.00 | 87 | 1012.9 |
| 20260509122602 | 11 | 281 | 1.6 | 4.8 | 0.00 | 0.00 | 0.00 | 88 | 1012.8 |
| 20260509122100 | 11 | 190 | 3.2 | 4.8 | 0.00 | 0.00 | 0.00 | 88 | 1012.8 |
| 20260509121601 | 11 | 190 | 1.6 | 4.8 | 0.00 | 0.00 | 0.00 | 88 | 1012.8 |
| 20260509121100 | 11 | 190 | 3.2 | 4.8 | 0.00 | 0.00 | 0.00 | 89 | 1012.8 |
| 20260509120600 | 10 | 190 | 1.6 | 3.2 | 0.00 | 0.00 | 0.00 | 89 | 1012.8 |
| 20260509120058 | 10 | 190 | 1.6 | 4.8 | 0.00 | 0.00 | 0.00 | 89 | 1012.8 |
| 20260509115559 | 10 | 190 | 1.6 | 4.8 | 0.00 | 0.00 | 0.00 | 89 | 1012.8 |
| 20260509115059 | 10 | 168 | 0.0 | 4.8 | 0.00 | 0.00 | 0.00 | 89 | 1012.8 |
| 20260509114559 | 10 | 0 | 0.0 | 0.0 | 0.00 | 0.00 | 0.00 | 90 | 1012.7 |
| 20260509114059 | 10 | 0 | 0.0 | 0.0 | 0.00 | 0.00 | 0.00 | 89 | 1012.8 |
| 20260509113559 | 10 | 0 | 0.0 | 0.0 | 0.00 | 0.00 | 0.00 | 89 | 1012.7 |
| 20260509113058 | 10 | 0 | 0.0 | 1.6 | 0.00 | 0.00 | 0.00 | 90 | 1012.7 |
| 20260509112559 | 10 | 0 | 0.0 | 1.6 | 0.00 | 0.00 | 0.00 | 90 | 1012.7 |
| 20260509112100 | 10 | 0 | 0.0 | 0.0 | 0.00 | 0.00 | 0.00 | 91 | 1012.8 |
| 20260509111559 | 10 | 0 | 0.0 | 0.0 | 0.00 | 0.00 | 0.00 | 91 | 1012.8 |
| 20260509111100 | 10 | 0 | 0.0 | 0.0 | 0.00 | 0.00 | 0.00 | 91 | 1012.7 |
| 20260509110600 | 10 | 0 | 0.0 | 3.2 | 0.00 | 0.00 | 0.00 | 91 | 1012.6 |
| 20260509110100 | 10 | 0 | 1.6 | 4.8 | 0.00 | 0.00 | 0.00 | 91 | 1012.6 |
| 20260509105600 | 10 | 0 | 1.6 | 4.8 | 0.00 | 0.00 | 0.00 | 90 | 1012.7 |
| 20260509105100 | 10 | 217 | 1.6 | 4.8 | 0.00 | 0.00 | 0.00 | 91 | 1012.7 |